sensor_id;sensor_type;location;lat;lon;timestamp;pressure;altitude;pressure_sealevel;temperature;humidity
11487;BME280;10510;47.942;9.442;2023-02-22T00:00:30;94474.06;;;0.63;100.00
11487;BME280;10510;47.942;9.442;2023-02-22T00:02:41;94481.94;;;0.62;100.00
11487;BME280;10510;47.942;9.442;2023-02-22T00:04:44;94479.47;;;0.60;100.00
11487;BME280;10510;47.942;9.442;2023-02-22T00:06:44;94481.22;;;0.60;100.00
11487;BME280;10510;47.942;9.442;2023-02-22T00:08:46;94479.72;;;0.57;100.00
11487;BME280;10510;47.942;9.442;2023-02-22T00:10:48;94483.34;;;0.55;100.00
11487;BME280;10510;47.942;9.442;2023-02-22T00:12:53;94480.78;;;0.55;100.00
11487;BME280;10510;47.942;9.442;2023-02-22T00:14:54;94483.34;;;0.55;100.00
11487;BME280;10510;47.942;9.442;2023-02-22T00:16:54;94471.44;;;0.54;100.00
11487;BME280;10510;47.942;9.442;2023-02-22T00:18:58;94472.25;;;0.54;100.00
11487;BME280;10510;47.942;9.442;2023-02-22T00:20:59;94463.03;;;0.52;100.00
11487;BME280;10510;47.942;9.442;2023-02-22T00:22:59;94469.13;;;0.51;100.00
11487;BME280;10510;47.942;9.442;2023-02-22T00:25:00;94470.88;;;0.50;100.00
11487;BME280;10510;47.942;9.442;2023-02-22T00:27:00;94469.38;;;0.48;100.00
11487;BME280;10510;47.942;9.442;2023-02-22T00:29:02;94468.00;;;0.43;100.00
11487;BME280;10510;47.942;9.442;2023-02-22T00:31:04;94469.03;;;0.41;100.00
11487;BME280;10510;47.942;9.442;2023-02-22T00:33:05;94456.59;;;0.36;100.00
11487;BME280;10510;47.942;9.442;2023-02-22T00:35:06;94466.16;;;0.34;100.00
11487;BME280;10510;47.942;9.442;2023-02-22T00:37:09;94464.66;;;0.32;100.00
11487;BME280;10510;47.942;9.442;2023-02-22T00:39:09;94466.41;;;0.31;100.00
11487;BME280;10510;47.942;9.442;2023-02-22T00:41:11;94460.59;;;0.29;100.00
11487;BME280;10510;47.942;9.442;2023-02-22T00:43:11;94458.41;;;0.25;100.00
11487;BME280;10510;47.942;9.442;2023-02-22T00:45:14;94459.31;;;0.23;100.00
11487;BME280;10510;47.942;9.442;2023-02-22T00:47:15;94451.59;;;0.23;100.00
11487;BME280;10510;47.942;9.442;2023-02-22T00:49:15;94459.31;;;0.23;100.00
11487;BME280;10510;47.942;9.442;2023-02-22T00:51:16;94457.69;;;0.22;100.00
11487;BME280;10510;47.942;9.442;2023-02-22T00:53:16;94465.41;;;0.22;100.00
11487;BME280;10510;47.942;9.442;2023-02-22T00:55:21;94456.44;;;0.17;100.00
11487;BME280;10510;47.942;9.442;2023-02-22T00:57:23;94446.66;;;0.11;100.00
11487;BME280;10510;47.942;9.442;2023-02-22T00:59:23;94447.06;;;0.06;100.00
11487;BME280;10510;47.942;9.442;2023-02-22T01:01:23;94450.78;;;0.02;100.00
11487;BME280;10510;47.942;9.442;2023-02-22T01:03:24;94444.13;;;-0.01;100.00
11487;BME280;10510;47.942;9.442;2023-02-22T01:05:27;94445.09;;;-0.02;100.00
11487;BME280;10510;47.942;9.442;2023-02-22T01:07:28;94448.47;;;-0.01;100.00
11487;BME280;10510;47.942;9.442;2023-02-22T01:09:28;94445.09;;;-0.02;100.00
11487;BME280;10510;47.942;9.442;2023-02-22T01:11:28;94452.78;;;-0.02;100.00
11487;BME280;10510;47.942;9.442;2023-02-22T01:13:29;94446.03;;;-0.03;100.00
11487;BME280;10510;47.942;9.442;2023-02-22T01:15:29;94451.28;;;-0.04;100.00
11487;BME280;10510;47.942;9.442;2023-02-22T01:17:30;94459.50;;;-0.10;100.00
11487;BME280;10510;47.942;9.442;2023-02-22T01:19:30;94444.44;;;-0.15;100.00
11487;BME280;10510;47.942;9.442;2023-02-22T01:21:31;94453.47;;;-0.20;100.00
11487;BME280;10510;47.942;9.442;2023-02-22T01:23:31;94450.31;;;-0.24;100.00
11487;BME280;10510;47.942;9.442;2023-02-22T01:25:32;94448.69;;;-0.25;100.00
11487;BME280;10510;47.942;9.442;2023-02-22T01:27:34;94442.84;;;-0.27;100.00
11487;BME280;10510;47.942;9.442;2023-02-22T01:29:34;94442.03;;;-0.28;100.00
11487;BME280;10510;47.942;9.442;2023-02-22T01:31:34;94440.97;;;-0.25;100.00
11487;BME280;10510;47.942;9.442;2023-02-22T01:33:35;94432.47;;;-0.26;100.00
11487;BME280;10510;47.942;9.442;2023-02-22T01:35:36;94437.59;;;-0.26;100.00
11487;BME280;10510;47.942;9.442;2023-02-22T01:37:40;94418.91;;;-0.28;100.00
11487;BME280;10510;47.942;9.442;2023-02-22T01:39:40;94440.28;;;-0.27;100.00
11487;BME280;10510;47.942;9.442;2023-02-22T01:41:40;94430.94;;;-0.28;100.00
11487;BME280;10510;47.942;9.442;2023-02-22T01:43:40;94427.56;;;-0.29;100.00
11487;BME280;10510;47.942;9.442;2023-02-22T01:45:46;94438.66;;;-0.28;100.00
11487;BME280;10510;47.942;9.442;2023-02-22T01:47:47;94433.88;;;-0.33;100.00
11487;BME280;10510;47.942;9.442;2023-02-22T01:49:48;94436.81;;;-0.37;100.00
11487;BME280;10510;47.942;9.442;2023-02-22T01:51:52;94434.03;;;-0.46;100.00
11487;BME280;10510;47.942;9.442;2023-02-22T01:53:59;94428.94;;;-0.57;100.00
11487;BME280;10510;47.942;9.442;2023-02-22T01:56:01;94432.78;;;-0.62;100.00
11487;BME280;10510;47.942;9.442;2023-02-22T01:58:03;94434.69;;;-0.64;100.00
11487;BME280;10510;47.942;9.442;2023-02-22T02:00:10;94429.78;;;-0.67;100.00
11487;BME280;10510;47.942;9.442;2023-02-22T02:02:12;94428.94;;;-0.68;100.00
11487;BME280;10510;47.942;9.442;2023-02-22T02:04:22;94428.94;;;-0.68;100.00
11487;BME280;10510;47.942;9.442;2023-02-22T02:06:25;94422.34;;;-0.71;100.00
11487;BME280;10510;47.942;9.442;2023-02-22T02:10:49;94423.38;;;-0.73;100.00
11487;BME280;10510;47.942;9.442;2023-02-22T02:12:50;94418.25;;;-0.73;100.00
11487;BME280;10510;47.942;9.442;2023-02-22T02:14:52;94414.97;;;-0.75;100.00
11487;BME280;10510;47.942;9.442;2023-02-22T02:16:53;94410.66;;;-0.75;100.00
11487;BME280;10510;47.942;9.442;2023-02-22T02:18:55;94417.41;;;-0.74;100.00
11487;BME280;10510;47.942;9.442;2023-02-22T02:37:07;94389.56;;;-0.89;100.00
11487;BME280;10510;47.942;9.442;2023-02-22T02:39:19;94387.94;;;-0.90;100.00
11487;BME280;10510;47.942;9.442;2023-02-22T02:41:28;94382.81;;;-0.90;100.00
11487;BME280;10510;47.942;9.442;2023-02-22T02:45:42;94376.88;;;-0.91;100.00
11487;BME280;10510;47.942;9.442;2023-02-22T02:47:48;94375.94;;;-0.90;100.00
11487;BME280;10510;47.942;9.442;2023-02-22T02:50:17;94378.25;;;-0.87;100.00
11487;BME280;10510;47.942;9.442;2023-02-22T02:52:20;94377.31;;;-0.86;100.00
11487;BME280;10510;47.942;9.442;2023-02-22T02:54:22;94375.44;;;-0.84;100.00
11487;BME280;10510;47.942;9.442;2023-02-22T02:56:23;94370.31;;;-0.84;100.00
11487;BME280;10510;47.942;9.442;2023-02-22T02:58:25;94366.00;;;-0.83;100.00
11487;BME280;10510;47.942;9.442;2023-02-22T03:00:28;94370.22;;;-0.82;100.00
11487;BME280;10510;47.942;9.442;2023-02-22T03:02:59;94363.31;;;-0.82;100.00
11487;BME280;10510;47.942;9.442;2023-02-22T03:07:32;94372.41;;;-0.78;100.00
11487;BME280;10510;47.942;9.442;2023-02-22T03:09:45;94369.50;;;-0.84;100.00
11487;BME280;10510;47.942;9.442;2023-02-22T03:12:00;94370.34;;;-0.95;100.00
11487;BME280;10510;47.942;9.442;2023-02-22T03:16:48;94363.72;;;-1.09;100.00
11487;BME280;10510;47.942;9.442;2023-02-22T03:23:46;94362.56;;;-1.05;100.00
11487;BME280;10510;47.942;9.442;2023-02-22T03:25:52;94361.84;;;-1.07;100.00
11487;BME280;10510;47.942;9.442;2023-02-22T03:27:56;94359.41;;;-1.08;100.00
11487;BME280;10510;47.942;9.442;2023-02-22T03:30:06;94363.72;;;-1.09;100.00
11487;BME280;10510;47.942;9.442;2023-02-22T03:32:15;94357.66;;;-1.08;100.00
11487;BME280;10510;47.942;9.442;2023-02-22T03:34:19;94354.28;;;-1.08;100.00
11487;BME280;10510;47.942;9.442;2023-02-22T03:36:27;94344.84;;;-1.08;100.00
11487;BME280;10510;47.942;9.442;2023-02-22T03:38:31;94350.88;;;-1.09;100.00
11487;BME280;10510;47.942;9.442;2023-02-22T03:40:34;94350.88;;;-1.09;100.00
11487;BME280;10510;47.942;9.442;2023-02-22T03:42:36;94347.50;;;-1.09;100.00
11487;BME280;10510;47.942;9.442;2023-02-22T03:44:39;94351.81;;;-1.10;100.00
11487;BME280;10510;47.942;9.442;2023-02-22T03:46:41;94348.56;;;-1.12;100.00
11487;BME280;10510;47.942;9.442;2023-02-22T03:51:12;94358.38;;;-1.17;100.00
11487;BME280;10510;47.942;9.442;2023-02-22T03:53:13;94349.97;;;-1.19;100.00
11487;BME280;10510;47.942;9.442;2023-02-22T03:55:15;94352.53;;;-1.19;100.00
11487;BME280;10510;47.942;9.442;2023-02-22T03:57:23;94353.59;;;-1.22;100.00
11487;BME280;10510;47.942;9.442;2023-02-22T03:59:25;94339.00;;;-1.21;100.00
11487;BME280;10510;47.942;9.442;2023-02-22T04:01:26;94346.84;;;-1.23;100.00
11487;BME280;10510;47.942;9.442;2023-02-22T04:03:26;94355.44;;;-1.24;100.00
11487;BME280;10510;47.942;9.442;2023-02-22T04:05:27;94355.59;;;-1.25;100.00
11487;BME280;10510;47.942;9.442;2023-02-22T04:07:27;94355.59;;;-1.25;100.00
11487;BME280;10510;47.942;9.442;2023-02-22T04:09:27;94354.88;;;-1.27;100.00
11487;BME280;10510;47.942;9.442;2023-02-22T04:11:28;94361.28;;;-1.33;100.00
11487;BME280;10510;47.942;9.442;2023-02-22T04:13:28;94361.53;;;-1.36;100.00
11487;BME280;10510;47.942;9.442;2023-02-22T04:15:28;94361.66;;;-1.38;100.00
11487;BME280;10510;47.942;9.442;2023-02-22T04:17:28;94361.09;;;-1.41;100.00
11487;BME280;10510;47.942;9.442;2023-02-22T04:19:29;94361.19;;;-1.43;100.00
11487;BME280;10510;47.942;9.442;2023-02-22T04:21:29;94358.38;;;-1.40;100.00
11487;BME280;10510;47.942;9.442;2023-02-22T04:23:29;94355.72;;;-1.38;100.00
11487;BME280;10510;47.942;9.442;2023-02-22T04:25:30;94358.88;;;-1.34;100.00
11487;BME280;10510;47.942;9.442;2023-02-22T04:27:30;94358.63;;;-1.31;100.00
11487;BME280;10510;47.942;9.442;2023-02-22T04:29:30;94353.84;;;-1.25;100.00
11487;BME280;10510;47.942;9.442;2023-02-22T04:31:31;94358.00;;;-1.24;100.00
11487;BME280;10510;47.942;9.442;2023-02-22T04:33:32;94353.97;;;-1.26;100.00
11487;BME280;10510;47.942;9.442;2023-02-22T04:35:33;94356.88;;;-1.31;100.00
11487;BME280;10510;47.942;9.442;2023-02-22T04:37:33;94356.16;;;-1.33;100.00
11487;BME280;10510;47.942;9.442;2023-02-22T04:39:34;94352.78;;;-1.33;100.00
11487;BME280;10510;47.942;9.442;2023-02-22T04:41:34;94354.78;;;-1.37;100.00
11487;BME280;10510;47.942;9.442;2023-02-22T04:43:34;94350.84;;;-1.41;100.00
11487;BME280;10510;47.942;9.442;2023-02-22T04:45:35;94355.13;;;-1.42;100.00
11487;BME280;10510;47.942;9.442;2023-02-22T04:47:36;94353.59;;;-1.44;100.00
11487;BME280;10510;47.942;9.442;2023-02-22T04:49:36;94353.75;;;-1.46;100.00
11487;BME280;10510;47.942;9.442;2023-02-22T04:51:37;94357.34;;;-1.48;100.00
11487;BME280;10510;47.942;9.442;2023-02-22T04:53:37;94356.78;;;-1.52;100.00
11487;BME280;10510;47.942;9.442;2023-02-22T04:55:37;94350.34;;;-1.57;100.00
11487;BME280;10510;47.942;9.442;2023-02-22T04:57:37;94353.97;;;-1.60;100.00
11487;BME280;10510;47.942;9.442;2023-02-22T04:59:38;94352.34;;;-1.61;100.00
11487;BME280;10510;47.942;9.442;2023-02-22T05:01:39;94349.06;;;-1.63;100.00
11487;BME280;10510;47.942;9.442;2023-02-22T05:03:39;94343.13;;;-1.64;100.00
11487;BME280;10510;47.942;9.442;2023-02-22T05:05:40;94344.75;;;-1.63;100.00
11487;BME280;10510;47.942;9.442;2023-02-22T05:07:40;94345.56;;;-1.62;100.00
11487;BME280;10510;47.942;9.442;2023-02-22T05:09:41;94341.38;;;-1.63;100.00
11487;BME280;10510;47.942;9.442;2023-02-22T05:11:41;94341.72;;;-1.68;100.00
11487;BME280;10510;47.942;9.442;2023-02-22T05:13:41;94340.34;;;-1.72;100.00
11487;BME280;10510;47.942;9.442;2023-02-22T05:15:42;94340.69;;;-1.76;100.00
11487;BME280;10510;47.942;9.442;2023-02-22T05:17:43;94341.75;;;-1.79;100.00
11487;BME280;10510;47.942;9.442;2023-02-22T05:19:43;94331.59;;;-1.80;100.00
11487;BME280;10510;47.942;9.442;2023-02-22T05:21:43;94335.09;;;-1.81;100.00
11487;BME280;10510;47.942;9.442;2023-02-22T05:23:43;94346.97;;;-1.80;100.00
11487;BME280;10510;47.942;9.442;2023-02-22T05:25:44;94336.72;;;-1.80;100.00
11487;BME280;10510;47.942;9.442;2023-02-22T05:28:10;94337.44;;;-1.78;100.00
11487;BME280;10510;47.942;9.442;2023-02-22T05:30:12;94338.13;;;-1.76;100.00
11487;BME280;10510;47.942;9.442;2023-02-22T05:32:12;94339.75;;;-1.75;100.00
11487;BME280;10510;47.942;9.442;2023-02-22T05:34:13;94338.13;;;-1.76;100.00
11487;BME280;10510;47.942;9.442;2023-02-22T05:36:13;94343.84;;;-1.73;100.00
11487;BME280;10510;47.942;9.442;2023-02-22T05:38:14;94335.22;;;-1.72;100.00
11487;BME280;10510;47.942;9.442;2023-02-22T05:40:15;94338.47;;;-1.70;100.00
11487;BME280;10510;47.942;9.442;2023-02-22T05:42:16;94340.91;;;-1.68;100.00
11487;BME280;10510;47.942;9.442;2023-02-22T05:44:18;94332.41;;;-1.69;100.00
11487;BME280;10510;47.942;9.442;2023-02-22T05:46:18;94334.03;;;-1.68;100.00
11487;BME280;10510;47.942;9.442;2023-02-22T05:48:19;94339.88;;;-1.66;100.00
11487;BME280;10510;47.942;9.442;2023-02-22T05:50:20;94335.56;;;-1.65;100.00
11487;BME280;10510;47.942;9.442;2023-02-22T05:52:21;94333.84;;;-1.65;100.00
11487;BME280;10510;47.942;9.442;2023-02-22T05:54:21;94331.03;;;-1.62;100.00
11487;BME280;10510;47.942;9.442;2023-02-22T05:56:23;94342.09;;;-1.61;100.00
11487;BME280;10510;47.942;9.442;2023-02-22T05:58:24;94346.50;;;-1.63;100.00
11487;BME280;10510;47.942;9.442;2023-02-22T06:00:27;94342.34;;;-1.64;100.00
11487;BME280;10510;47.942;9.442;2023-02-22T06:02:27;94342.34;;;-1.64;100.00
11487;BME280;10510;47.942;9.442;2023-02-22T06:04:28;94332.88;;;-1.64;100.00
11487;BME280;10510;47.942;9.442;2023-02-22T06:06:28;94341.38;;;-1.63;100.00
11487;BME280;10510;47.942;9.442;2023-02-22T06:08:28;94336.97;;;-1.61;100.00
11487;BME280;10510;47.942;9.442;2023-02-22T06:10:29;94340.34;;;-1.61;100.00
11487;BME280;10510;47.942;9.442;2023-02-22T06:12:29;94344.53;;;-1.60;100.00
11487;BME280;10510;47.942;9.442;2023-02-22T06:14:29;94345.34;;;-1.59;100.00
11487;BME280;10510;47.942;9.442;2023-02-22T06:16:30;94347.22;;;-1.61;100.00
11487;BME280;10510;47.942;9.442;2023-02-22T06:18:31;94348.13;;;-1.62;100.00
11487;BME280;10510;47.942;9.442;2023-02-22T06:20:31;94343.94;;;-1.63;100.00
11487;BME280;10510;47.942;9.442;2023-02-22T06:22:34;94352.22;;;-1.60;100.00
11487;BME280;10510;47.942;9.442;2023-02-22T06:24:37;94351.75;;;-1.53;100.00
11487;BME280;10510;47.942;9.442;2023-02-22T06:26:37;94350.59;;;-1.49;100.00
11487;BME280;10510;47.942;9.442;2023-02-22T06:28:38;94352.78;;;-1.45;100.00
11487;BME280;10510;47.942;9.442;2023-02-22T06:30:39;94349.19;;;-1.42;100.00
11487;BME280;10510;47.942;9.442;2023-02-22T06:32:40;94343.34;;;-1.33;100.00
11487;BME280;10510;47.942;9.442;2023-02-22T06:34:40;94341.47;;;-1.20;100.00
11487;BME280;10510;47.942;9.442;2023-02-22T06:36:40;94346.44;;;-1.07;100.00
11487;BME280;10510;47.942;9.442;2023-02-22T06:38:41;94342.50;;;-1.00;100.00
11487;BME280;10510;47.942;9.442;2023-02-22T06:40:42;94342.81;;;-0.93;100.00
11487;BME280;10510;47.942;9.442;2023-02-22T06:42:42;94349.09;;;-0.86;100.00
11487;BME280;10510;47.942;9.442;2023-02-22T06:44:42;94351.06;;;-0.78;100.00
11487;BME280;10510;47.942;9.442;2023-02-22T06:46:47;94341.09;;;-0.72;100.00
11487;BME280;10510;47.942;9.442;2023-02-22T06:48:49;94344.94;;;-0.66;100.00
11487;BME280;10510;47.942;9.442;2023-02-22T06:50:51;94345.41;;;-0.61;100.00
11487;BME280;10510;47.942;9.442;2023-02-22T06:52:51;94340.97;;;-0.59;100.00
11487;BME280;10510;47.942;9.442;2023-02-22T06:54:51;94349.22;;;-0.55;100.00
11487;BME280;10510;47.942;9.442;2023-02-22T06:56:52;94354.47;;;-0.57;100.00
11487;BME280;10510;47.942;9.442;2023-02-22T06:58:52;94357.84;;;-0.56;100.00
11487;BME280;10510;47.942;9.442;2023-02-22T07:00:53;94361.25;;;-0.56;100.00
11487;BME280;10510;47.942;9.442;2023-02-22T07:02:54;94358.00;;;-0.58;100.00
11487;BME280;10510;47.942;9.442;2023-02-22T07:04:54;94354.72;;;-0.60;100.00
11487;BME280;10510;47.942;9.442;2023-02-22T07:06:54;94358.09;;;-0.59;100.00
11487;BME280;10510;47.942;9.442;2023-02-22T07:08:55;94356.94;;;-0.55;100.00
11487;BME280;10510;47.942;9.442;2023-02-22T07:10:55;94359.72;;;-0.47;100.00
11487;BME280;10510;47.942;9.442;2023-02-22T07:12:56;94357.22;;;-0.37;100.00
11487;BME280;10510;47.942;9.442;2023-02-22T07:14:56;94352.13;;;-0.28;100.00
11487;BME280;10510;47.942;9.442;2023-02-22T07:16:56;94358.84;;;-0.15;100.00
11487;BME280;10510;47.942;9.442;2023-02-22T07:18:56;94352.03;;;-0.05;100.00
11487;BME280;10510;47.942;9.442;2023-02-22T07:20:57;94358.97;;;0.04;100.00
11487;BME280;10510;47.942;9.442;2023-02-22T07:22:58;94356.44;;;0.14;100.00
11487;BME280;10510;47.942;9.442;2023-02-22T07:24:58;94361.78;;;0.22;100.00
11487;BME280;10510;47.942;9.442;2023-02-22T07:27:00;94356.38;;;0.25;100.00
11487;BME280;10510;47.942;9.442;2023-02-22T07:29:00;94349.91;;;0.31;100.00
11487;BME280;10510;47.942;9.442;2023-02-22T07:31:01;94349.41;;;0.37;100.00
11487;BME280;10510;47.942;9.442;2023-02-22T07:33:03;94356.75;;;0.41;100.00
11487;BME280;10510;47.942;9.442;2023-02-22T07:35:04;94360.78;;;0.44;100.00
11487;BME280;10510;47.942;9.442;2023-02-22T07:37:04;94356.22;;;0.48;100.00
11487;BME280;10510;47.942;9.442;2023-02-22T07:39:04;94356.53;;;0.54;100.00
11487;BME280;10510;47.942;9.442;2023-02-22T07:41:07;94350.75;;;0.62;100.00
11487;BME280;10510;47.942;9.442;2023-02-22T07:45:08;94351.06;;;0.78;100.00
11487;BME280;10510;47.942;9.442;2023-02-22T07:47:08;94352.84;;;0.87;100.00
11487;BME280;10510;47.942;9.442;2023-02-22T07:49:11;94359.66;;;0.98;100.00
11487;BME280;10510;47.942;9.442;2023-02-22T07:51:14;94356.16;;;1.09;100.00
11487;BME280;10510;47.942;9.442;2023-02-22T07:53:21;94351.03;;;1.19;100.00
11487;BME280;10510;47.942;9.442;2023-02-22T07:55:25;94353.47;;;1.30;100.00
11487;BME280;10510;47.942;9.442;2023-02-22T07:57:25;94351.59;;;1.42;100.00
11487;BME280;10510;47.942;9.442;2023-02-22T07:59:26;94356.19;;;1.57;100.00
11487;BME280;10510;47.942;9.442;2023-02-22T08:01:26;94354.84;;;1.73;100.00
11487;BME280;10510;47.942;9.442;2023-02-22T08:03:29;94355.38;;;1.86;100.00
11487;BME280;10510;47.942;9.442;2023-02-22T08:05:31;94352.50;;;1.99;100.00
11487;BME280;10510;47.942;9.442;2023-02-22T08:07:31;94351.97;;;2.15;100.00
11487;BME280;10510;47.942;9.442;2023-02-22T08:09:31;94346.22;;;2.31;100.00
11487;BME280;10510;47.942;9.442;2023-02-22T08:11:32;94347.66;;;2.43;100.00
11487;BME280;10510;47.942;9.442;2023-02-22T08:13:32;94347.75;;;2.61;100.00
11487;BME280;10510;47.942;9.442;2023-02-22T08:15:35;94347.00;;;2.78;100.00
11487;BME280;10510;47.942;9.442;2023-02-22T08:17:35;94336.88;;;2.94;100.00
11487;BME280;10510;47.942;9.442;2023-02-22T08:19:37;94340.06;;;3.06;100.00
11487;BME280;10510;47.942;9.442;2023-02-22T08:21:38;94336.03;;;3.22;100.00
11487;BME280;10510;47.942;9.442;2023-02-22T08:23:38;94332.19;;;3.44;100.00
11487;BME280;10510;47.942;9.442;2023-02-22T08:25:39;94332.06;;;3.63;100.00
11487;BME280;10510;47.942;9.442;2023-02-22T08:27:40;94327.69;;;3.81;100.00
11487;BME280;10510;47.942;9.442;2023-02-22T08:29:40;94329.94;;;4.02;100.00
11487;BME280;10510;47.942;9.442;2023-02-22T08:31:40;94333.38;;;4.29;100.00
11487;BME280;10510;47.942;9.442;2023-02-22T08:33:41;94323.31;;;4.52;100.00
11487;BME280;10510;47.942;9.442;2023-02-22T08:35:41;94332.34;;;4.74;100.00
11487;BME280;10510;47.942;9.442;2023-02-22T08:37:47;94333.22;;;4.99;100.00
11487;BME280;10510;47.942;9.442;2023-02-22T08:39:47;94330.75;;;5.23;100.00
11487;BME280;10510;47.942;9.442;2023-02-22T08:41:48;94328.97;;;5.40;100.00
11487;BME280;10510;47.942;9.442;2023-02-22T08:43:48;94331.75;;;5.55;100.00
11487;BME280;10510;47.942;9.442;2023-02-22T08:45:49;94330.16;;;5.70;100.00
11487;BME280;10510;47.942;9.442;2023-02-22T08:47:50;94330.66;;;5.90;100.00
11487;BME280;10510;47.942;9.442;2023-02-22T08:49:51;94329.56;;;6.01;100.00
11487;BME280;10510;47.942;9.442;2023-02-22T08:51:51;94322.91;;;6.15;100.00
11487;BME280;10510;47.942;9.442;2023-02-22T08:53:51;94329.38;;;6.35;100.00
11487;BME280;10510;47.942;9.442;2023-02-22T08:55:52;94330.81;;;6.46;100.00
11487;BME280;10510;47.942;9.442;2023-02-22T08:57:52;94335.84;;;6.56;100.00
11487;BME280;10510;47.942;9.442;2023-02-22T08:59:53;94331.91;;;6.60;100.00
11487;BME280;10510;47.942;9.442;2023-02-22T09:01:53;94326.53;;;6.70;100.00
11487;BME280;10510;47.942;9.442;2023-02-22T09:03:55;94321.97;;;6.72;100.00
11487;BME280;10510;47.942;9.442;2023-02-22T09:05:55;94334.16;;;6.79;100.00
11487;BME280;10510;47.942;9.442;2023-02-22T09:07:55;94322.09;;;6.87;100.00
11487;BME280;10510;47.942;9.442;2023-02-22T09:09:56;94324.50;;;6.88;100.00
11487;BME280;10510;47.942;9.442;2023-02-22T09:11:56;94325.81;;;6.92;100.00
11487;BME280;10510;47.942;9.442;2023-02-22T09:13:56;94318.63;;;7.02;100.00
11487;BME280;10510;47.942;9.442;2023-02-22T09:15:57;94321.31;;;7.17;100.00
11487;BME280;10510;47.942;9.442;2023-02-22T09:17:58;94323.53;;;7.28;100.00
11487;BME280;10510;47.942;9.442;2023-02-22T09:19:58;94320.22;;;7.43;100.00
11487;BME280;10510;47.942;9.442;2023-02-22T09:21:58;94312.19;;;7.53;100.00
11487;BME280;10510;47.942;9.442;2023-02-22T09:23:59;94320.88;;;7.68;100.00
11487;BME280;10510;47.942;9.442;2023-02-22T09:26:07;94314.28;;;7.80;100.00
11487;BME280;10510;47.942;9.442;2023-02-22T09:28:08;94310.19;;;7.86;100.00
11487;BME280;10510;47.942;9.442;2023-02-22T09:30:15;94315.44;;;8.01;100.00
11487;BME280;10510;47.942;9.442;2023-02-22T09:32:16;94310.72;;;8.19;100.00
11487;BME280;10510;47.942;9.442;2023-02-22T09:34:18;94308.59;;;8.37;100.00
11487;BME280;10510;47.942;9.442;2023-02-22T09:36:19;94306.16;;;8.59;100.00
11487;BME280;10510;47.942;9.442;2023-02-22T09:38:22;94311.53;;;8.72;100.00
11487;BME280;10510;47.942;9.442;2023-02-22T09:40:25;94305.59;;;8.93;100.00
11487;BME280;10510;47.942;9.442;2023-02-22T09:42:40;94308.16;;;9.23;100.00
11487;BME280;10510;47.942;9.442;2023-02-22T09:45:22;94302.16;;;9.44;100.00
11487;BME280;10510;47.942;9.442;2023-02-22T09:47:26;94310.22;;;9.64;100.00
11487;BME280;10510;47.942;9.442;2023-02-22T09:49:46;94302.75;;;9.82;100.00
11487;BME280;10510;47.942;9.442;2023-02-22T09:52:22;94301.81;;;10.11;100.00
11487;BME280;10510;47.942;9.442;2023-02-22T09:54:44;94298.66;;;10.16;100.00
11487;BME280;10510;47.942;9.442;2023-02-22T09:56:54;94295.13;;;10.23;100.00
11487;BME280;10510;47.942;9.442;2023-02-22T09:58:59;94296.84;;;10.38;100.00
11487;BME280;10510;47.942;9.442;2023-02-22T10:01:32;94290.59;;;10.67;100.00
11487;BME280;10510;47.942;9.442;2023-02-22T10:03:51;94298.16;;;10.83;100.00
11487;BME280;10510;47.942;9.442;2023-02-22T10:06:01;94294.91;;;10.81;100.00
11487;BME280;10510;47.942;9.442;2023-02-22T10:08:07;94298.16;;;10.83;100.00
11487;BME280;10510;47.942;9.442;2023-02-22T10:10:15;94292.38;;;10.95;100.00
11487;BME280;10510;47.942;9.442;2023-02-22T10:14:34;94288.97;;;11.01;100.00
11487;BME280;10510;47.942;9.442;2023-02-22T10:16:42;94292.44;;;11.08;100.00
11487;BME280;10510;47.942;9.442;2023-02-22T10:28:19;94287.91;;;11.30;100.00
11487;BME280;10510;47.942;9.442;2023-02-22T10:30:26;94282.75;;;11.56;100.00
11487;BME280;10510;47.942;9.442;2023-02-22T10:32:33;94282.19;;;11.81;100.00
11487;BME280;10510;47.942;9.442;2023-02-22T10:34:48;94286.09;;;12.18;100.00
11487;BME280;10510;47.942;9.442;2023-02-22T10:36:57;94275.41;;;12.26;100.00
11487;BME280;10510;47.942;9.442;2023-02-22T10:41:27;94276.78;;;12.62;100.00
11487;BME280;10510;47.942;9.442;2023-02-22T10:43:28;94274.84;;;13.03;100.00
11487;BME280;10510;47.942;9.442;2023-02-22T10:45:31;94273.75;;;13.37;100.00
11487;BME280;10510;47.942;9.442;2023-02-22T10:47:32;94270.81;;;13.58;100.00
11487;BME280;10510;47.942;9.442;2023-02-22T10:49:56;94270.38;;;13.61;100.00
11487;BME280;10510;47.942;9.442;2023-02-22T10:52:02;94264.53;;;13.66;100.00
11487;BME280;10510;47.942;9.442;2023-02-22T10:58:12;94265.50;;;13.72;100.00
11487;BME280;10510;47.942;9.442;2023-02-22T11:02:22;94256.94;;;13.51;100.00
11487;BME280;10510;47.942;9.442;2023-02-22T11:04:23;94255.06;;;13.58;100.00
11487;BME280;10510;47.942;9.442;2023-02-22T11:06:24;94250.38;;;13.99;100.00
11487;BME280;10510;47.942;9.442;2023-02-22T11:08:29;94249.34;;;14.25;100.00
11487;BME280;10510;47.942;9.442;2023-02-22T11:10:31;94241.38;;;14.13;100.00
11487;BME280;10510;47.942;9.442;2023-02-22T11:12:39;94241.66;;;14.23;100.00
11487;BME280;10510;47.942;9.442;2023-02-22T11:14:41;94237.91;;;14.38;100.00
11487;BME280;10510;47.942;9.442;2023-02-22T11:16:46;94240.75;;;14.61;100.00
11487;BME280;10510;47.942;9.442;2023-02-22T11:18:48;94236.09;;;14.63;100.00
11487;BME280;10510;47.942;9.442;2023-02-22T11:20:58;94231.22;;;14.42;100.00
11487;BME280;10510;47.942;9.442;2023-02-22T11:23:01;94232.88;;;14.36;100.00
11487;BME280;10510;47.942;9.442;2023-02-22T11:25:03;94235.19;;;14.26;100.00
11487;BME280;10510;47.942;9.442;2023-02-22T11:27:06;94234.03;;;14.22;100.00
11487;BME280;10510;47.942;9.442;2023-02-22T11:29:19;94236.41;;;14.48;100.00
11487;BME280;10510;47.942;9.442;2023-02-22T11:31:23;94227.34;;;14.69;100.00
11487;BME280;10510;47.942;9.442;2023-02-22T11:33:25;94221.72;;;14.41;100.00
11487;BME280;10510;47.942;9.442;2023-02-22T11:37:31;94217.91;;;14.37;100.00
11487;BME280;10510;47.942;9.442;2023-02-22T11:39:32;94215.34;;;14.73;100.00
11487;BME280;10510;47.942;9.442;2023-02-22T11:41:33;94219.38;;;14.94;100.00